Time;durP1;ratioP1;P1;durP2;ratioP2;P2;SDS_P1;SDS_P2;PMS_P1;PMS_P2;Temp;Humidity;BMP_temperature;BMP_pressure;BME280_temperature;BME280_humidity;BME280_pressure;Samples;Min_cycle;Max_cycle;Signal;HPM_P1;HPM_P2
2021/07/23 00:00:40;;;;;;;;;;;;;;;;;;1467499;40;19941;-38
2021/07/23 00:01:40;;;;;;;;;;;;;;;;;;1465764;40;20336;-37
2021/07/23 00:02:40;;;;;;;;;;;;;;;;;;1468191;40;19933;-39
2021/07/23 00:03:41;;;;;;;;;;;;;;;;;;1468135;40;19933;-39
2021/07/23 00:04:42;;;;;;;;;;;;;;;;;;1467367;40;19940;-40
2021/07/23 00:05:43;;;;;;;;;;;;;;;;;;1471448;40;20030;-40
2021/07/23 00:06:43;;;;;;;;;;;;;;;;;;1473524;40;19940;-37
2021/07/23 00:07:43;;;;;;;;;;;;;;;;;;1472512;40;20020;-39
2021/07/23 00:08:44;;;;;;;;;;;;;;;;;;1472166;40;19965;-36
2021/07/23 00:09:44;;;;;;;;;;;;;;;;;;1472061;40;19940;-37
2021/07/23 00:10:44;;;;;;;;;;;;;;;;;;1467537;40;19933;-39
2021/07/23 00:11:44;;;;;;;;;;;;;;;;;;1467894;40;19965;-37
2021/07/23 00:12:45;;;;;;;;;;;;;;;;;;1471682;40;19932;-40
2021/07/23 00:13:47;;;;;;;;;;;;;;;;;;1472402;40;19932;-38
2021/07/23 00:14:47;;;;;;;;;;;;;;;;;;1472363;40;20423;-39
2021/07/23 00:15:47;;;;;;;;;;;;;;;;;;1472361;40;19933;-39
2021/07/23 00:16:48;;;;;;;;;;;;;;;;;;1472248;40;19939;-37
2021/07/23 00:17:48;;;;;;;;;;;;;;;;;;1463486;40;19933;-39
2021/07/23 00:18:48;;;;;;;;;;;;;;;;;;1467288;40;20200;-38
2021/07/23 00:19:49;;;;;;;;;;;;;;;;;;1471909;40;19982;-37
2021/07/23 00:20:49;;;;;;;;;;;;;;;;;;1470598;40;19957;-35
2021/07/23 00:21:50;;;;;;;;;;;;;;;;;;1470904;40;20059;-39
2021/07/23 00:22:50;;;;;;;;;;;;;;;;;;1467676;40;19933;-40
2021/07/23 00:23:50;;;;;;;;;;;;;;;;;;1479363;40;19964;-38
2021/07/23 00:24:51;;;;;;;;;;;;;;;;;;1467272;40;19945;-38
2021/07/23 00:25:51;;;;;;;;;;;;;;;;;;1467040;40;20159;-38
2021/07/23 00:26:52;;;;;;;;;;;;;;;;;;1475476;40;19968;-37
2021/07/23 00:27:53;;;;;;;;;;;;;;;;;;1477298;40;19932;-40
2021/07/23 00:28:53;;;;;;;;;;;;;;;;;;1480045;40;19955;-40
2021/07/23 00:29:53;;;;;;;;;;;;;;;;;;1479322;40;20265;-37
2021/07/23 00:30:53;;;;;;;;;;;;;;;;;;1480240;40;19932;-40
2021/07/23 00:31:54;;;;;;;;;;;;;;;;;;1475468;40;20293;-40
2021/07/23 00:32:54;;;;;;;;;;;;;;;;;;1471279;40;19933;-40
2021/07/23 00:33:54;;;;;;;;;;;;;;;;;;1466678;40;19953;-40
2021/07/23 00:34:55;;;;;;;;;;;;;;;;;;1475278;40;19932;-37
2021/07/23 00:35:55;;;;;;;;;;;;;;;;;;1480730;40;19939;-41
2021/07/23 00:36:55;;;;;;;;;;;;;;;;;;1479991;40;19936;-39
2021/07/23 00:37:57;;;;;;;;;;;;;;;;;;1480294;40;20232;-38
2021/07/23 00:38:57;;;;;;;;;;;;;;;;;;1468566;40;19995;-38
2021/07/23 00:39:57;;;;;;;;;;;;;;;;;;1471292;40;19959;-40
2021/07/23 00:40:58;;;;;;;;;;;;;;;;;;1473902;40;19944;-37
2021/07/23 00:41:58;;;;;;;;;;;;;;;;;;1472380;40;19925;-40
2021/07/23 00:42:59;;;;;;;;;;;;;;;;;;1463094;40;19936;-40
2021/07/23 00:44:00;;;;;;;;;;;;;;;;;;1470664;40;19953;-37
2021/07/23 00:45:00;;;;;;;;;;;;;;;;;;1475611;40;20223;-36
2021/07/23 00:46:01;;;;;;;;;;;;;;;;;;1476014;40;19939;-40
2021/07/23 00:47:01;;;;;;;;;;;;;;;;;;1467002;40;19937;-40
2021/07/23 00:48:02;;;;;;;;;;;;;;;;;;1468206;40;20510;-39
2021/07/23 00:49:02;;;;;;;;;;;;;;;;;;1476890;40;19932;-37
2021/07/23 00:50:04;;;;;;;;;;;;;;;;;;1479524;40;19941;-39
2021/07/23 00:51:06;;;;;;;;;;;;;;;;;;1479622;40;19943;-40
2021/07/23 00:52:06;;;;;;;;;;;;;;;;;;1477429;40;19932;-39
2021/07/23 00:53:06;;;;;;;;;;;;;;;;;;1477477;40;19993;-38
2021/07/23 00:54:07;;;;;;;;;;;;;;;;;;1472492;40;19992;-38
2021/07/23 00:55:08;;;;;;;;;;;;;;;;;;1469327;40;20274;-36
2021/07/23 00:56:09;;;;;;;;;;;;;;;;;;1475242;40;19929;-36
2021/07/23 00:57:09;;;;;;;;;;;;;;;;;;1473220;40;20017;-39
2021/07/23 00:58:09;;;;;;;;;;;;;;;;;;1461707;40;19947;-44
2021/07/23 00:59:10;;;;;;;;;;;;;;;;;;1475059;40;20299;-38
2021/07/23 01:00:11;;;;;;;;;;;;;;;;;;1469140;40;20470;-37
2021/07/23 01:01:11;;;;;;;;;;;;;;;;;;1471183;40;19944;-37
2021/07/23 01:02:12;;;;;;;;;;;;;;;;;;1471196;40;20011;-42
2021/07/23 01:03:12;;;;;;;;;;;;;;;;;;1471144;40;19956;-43
2021/07/23 01:04:13;;;;;;;;;;;;;;;;;;1471186;40;19933;-39
2021/07/23 01:05:13;;;;;;;;;;;;;;;;;;1470562;40;19998;-39
2021/07/23 01:06:14;;;;;;;;;;;;;;;;;;1471691;40;19955;-38
2021/07/23 01:07:14;;;;;;;;;;;;;;;;;;1474991;40;19943;-40
2021/07/23 01:08:14;;;;;;;;;;;;;;;;;;1474407;40;19976;-40
2021/07/23 01:09:15;;;;;;;;;;;;;;;;;;1474414;40;19939;-38
2021/07/23 01:10:15;;;;;;;;;;;;;;;;;;1471866;40;19933;-40
2021/07/23 01:11:15;;;;;;;;;;;;;;;;;;1466458;40;20285;-37
2021/07/23 01:12:16;;;;;;;;;;;;;;;;;;1467372;40;19933;-39
2021/07/23 01:13:16;;;;;;;;;;;;;;;;;;1464844;40;20644;-38
2021/07/23 01:14:17;;;;;;;;;;;;;;;;;;1470777;40;19945;-37
2021/07/23 01:15:17;;;;;;;;;;;;;;;;;;1471161;40;19945;-38
2021/07/23 01:16:17;;;;;;;;;;;;;;;;;;1466948;40;19948;-42
2021/07/23 01:17:18;;;;;;;;;;;;;;;;;;1466666;40;19934;-38
2021/07/23 01:18:18;;;;;;;;;;;;;;;;;;1465869;40;19929;-40
2021/07/23 01:19:20;;;;;;;;;;;;;;;;;;1466974;40;20211;-38
2021/07/23 01:20:27;;;;;;;;;;;;;;;;;;1466817;40;20340;-40
2021/07/23 01:21:27;;;;;;;;;;;;;;;;;;1472589;40;20462;-39
2021/07/23 01:22:29;;;;;;;;;;;;;;;;;;1467077;40;20068;-40
2021/07/23 01:23:30;;;;;;;;;;;;;;;;;;1467119;40;20003;-38
2021/07/23 01:24:31;;;;;;;;;;;;;;;;;;1467252;40;20518;-37
2021/07/23 01:25:33;;;;;;;;;;;;;;;;;;1465755;40;20325;-37
2021/07/23 01:26:33;;;;;;;;;;;;;;;;;;1464155;40;20256;-42
2021/07/23 01:27:38;;;;;;;;;;;;;;;;;;1470608;40;19959;-39
2021/07/23 01:28:40;;;;;;;;;;;;;;;;;;1469836;40;20289;-36
2021/07/23 01:29:40;;;;;;;;;;;;;;;;;;1475898;40;19951;-37
2021/07/23 01:30:40;;;;;;;;;;;;;;;;;;1475298;40;19941;-36
2021/07/23 01:31:41;;;;;;;;;;;;;;;;;;1475182;40;19932;-37
2021/07/23 01:32:41;;;;;;;;;;;;;;;;;;1479554;40;19939;-38
2021/07/23 01:33:42;;;;;;;;;;;;;;;;;;1475227;40;19933;-38
2021/07/23 01:34:42;;;;;;;;;;;;;;;;;;1467835;40;19987;-38
2021/07/23 01:35:43;;;;;;;;;;;;;;;;;;1475201;40;19929;-39
2021/07/23 01:36:43;;;;;;;;;;;;;;;;;;1475168;40;19939;-41
2021/07/23 01:37:45;;;;;;;;;;;;;;;;;;1473526;40;19929;-38
2021/07/23 01:38:46;;;;;;;;;;;;;;;;;;1473429;40;19947;-38
2021/07/23 01:39:46;;;;;;;;;;;;;;;;;;1467141;40;20576;-37
2021/07/23 01:40:48;;;;;;;;;;;;;;;;;;1465803;40;19955;-38
2021/07/23 01:41:48;;;;;;;;;;;;;;;;;;1470157;40;19936;-37
2021/07/23 01:42:49;;;;;;;;;;;;;;;;;;1475356;40;20021;-39
2021/07/23 01:43:49;;;;;;;;;;;;;;;;;;1471181;40;20494;-39
2021/07/23 01:44:49;;;;;;;;;;;;;;;;;;1467757;40;19941;-37
2021/07/23 01:45:52;;;;;;;;;;;;;;;;;;1480022;40;19935;-40
2021/07/23 01:46:53;;;;;;;;;;;;;;;;;;1471316;40;19937;-38
2021/07/23 01:47:53;;;;;;;;;;;;;;;;;;1471238;40;20160;-39
2021/07/23 01:48:53;;;;;;;;;;;;;;;;;;1479705;40;19936;-40
2021/07/23 01:49:54;;;;;;;;;;;;;;;;;;1471035;40;19933;-39
2021/07/23 01:50:54;;;;;;;;;;;;;;;;;;1471032;40;19957;-37
2021/07/23 01:51:54;;;;;;;;;;;;;;;;;;1480255;40;19932;-37
2021/07/23 01:52:55;;;;;;;;;;;;;;;;;;1478832;40;19938;-40
2021/07/23 01:53:55;;;;;;;;;;;;;;;;;;1480489;40;19996;-36
2021/07/23 01:54:55;;;;;;;;;;;;;;;;;;1479950;40;19932;-36
2021/07/23 01:55:56;;;;;;;;;;;;;;;;;;1479862;40;19932;-39
2021/07/23 01:56:56;;;;;;;;;;;;;;;;;;1471947;40;19933;-38
2021/07/23 01:57:56;;;;;;;;;;;;;;;;;;1475366;40;19971;-37
2021/07/23 01:58:57;;;;;;;;;;;;;;;;;;1475996;40;20006;-40
2021/07/23 01:59:57;;;;;;;;;;;;;;;;;;1475314;40;20669;-39
2021/07/23 02:00:58;;;;;;;;;;;;;;;;;;1470541;40;19944;-41
2021/07/23 02:01:58;;;;;;;;;;;;;;;;;;1466124;40;19939;-40
2021/07/23 02:02:58;;;;;;;;;;;;;;;;;;1476124;40;19928;-41
2021/07/23 02:03:59;;;;;;;;;;;;;;;;;;1470475;40;20291;-37
2021/07/23 02:05:00;;;;;;;;;;;;;;;;;;1475305;40;19948;-38
2021/07/23 02:06:00;;;;;;;;;;;;;;;;;;1475431;40;20494;-40
2021/07/23 02:07:00;;;;;;;;;;;;;;;;;;1472555;40;19944;-39
2021/07/23 02:08:01;;;;;;;;;;;;;;;;;;1476126;40;20295;-38
2021/07/23 02:09:01;;;;;;;;;;;;;;;;;;1466812;40;19953;-37
2021/07/23 02:10:02;;;;;;;;;;;;;;;;;;1471180;40;19933;-37
2021/07/23 08:02:20;;;;;;;;;;;;;;;;;;1491427;39;20326;-38
2021/07/23 08:03:20;;;;;;;;;;;;;;;;;;1491991;39;19947;-39
2021/07/23 08:04:21;;;;;;;;;;;;;;;;;;1491901;39;19975;-39
2021/07/23 08:05:21;;;;;;;;;;;;;;;;;;1491258;39;19955;-46
2021/07/23 08:06:27;;;;;;;;;;;;;;;;;;1490847;39;19991;-39
2021/07/23 08:07:33;;;;;;;;;;;;;;;;;;1493435;39;20015;-43
2021/07/23 08:08:34;;;;;;;;;;;;;;;;;;1495361;39;20106;-41
2021/07/23 08:09:58;;;;;;;;;;;;;;;;;;1490999;39;19939;-38
2021/07/23 08:10:58;;;;;;;;;;;;;;;;;;1495611;39;19931;-39
2021/07/23 08:11:59;;;;;;;;;;;;;;;;;;1489048;39;20272;-43
2021/07/23 08:12:59;;;;;;;;;;;;;;;;;;1490978;39;20614;-37
2021/07/23 08:13:59;;;;;;;;;;;;;;;;;;1491833;39;19932;-39
2021/07/23 08:15:00;;;;;;;;;;;;;;;;;;1491391;39;19932;-40
2021/07/23 08:16:00;;;;;;;;;;;;;;;;;;1492037;39;19944;-36
2021/07/23 08:17:00;;;;;;;;;;;;;;;;;;1489928;39;19932;-38
2021/07/23 08:18:02;;;;;;;;;;;;;;;;;;1496202;39;19931;-40
2021/07/23 08:19:03;;;;;;;;;;;;;;;;;;1496036;39;19932;-40
2021/07/23 08:20:04;;;;;;;;;;;;;;;;;;1494085;39;20250;-36
2021/07/23 08:21:04;;;;;;;;;;;;;;;;;;1491560;39;19975;-41
2021/07/23 08:22:05;;;;;;;;;;;;;;;;;;1490972;39;19941;-40
2021/07/23 08:23:05;;;;;;;;;;;;;;;;;;1496176;39;19939;-39
2021/07/23 08:24:06;;;;;;;;;;;;;;;;;;1495861;39;20026;-40
2021/07/23 08:25:06;;;;;;;;;;;;;;;;;;1496290;39;19951;-40
2021/07/23 08:26:07;;;;;;;;;;;;;;;;;;1495746;39;20001;-38
2021/07/23 08:27:07;;;;;;;;;;;;;;;;;;1496101;39;20189;-38
2021/07/23 08:28:07;;;;;;;;;;;;;;;;;;1489014;39;19939;-40
2021/07/23 08:29:07;;;;;;;;;;;;;;;;;;1491672;39;20245;-41
2021/07/23 08:30:08;;;;;;;;;;;;;;;;;;1491732;39;19950;-42
2021/07/23 08:31:08;;;;;;;;;;;;;;;;;;1491753;39;20437;-42
2021/07/23 08:32:09;;;;;;;;;;;;;;;;;;1490405;39;20499;-42
2021/07/23 08:33:10;;;;;;;;;;;;;;;;;;1496116;39;19931;-39
2021/07/23 08:34:10;;;;;;;;;;;;;;;;;;1495740;39;20074;-40
2021/07/23 08:35:10;;;;;;;;;;;;;;;;;;1496113;39;19942;-43
2021/07/23 08:36:11;;;;;;;;;;;;;;;;;;1495708;39;20290;-39
2021/07/23 08:37:11;;;;;;;;;;;;;;;;;;1491716;39;19947;-40
2021/07/23 08:38:11;;;;;;;;;;;;;;;;;;1495667;39;19935;-37
2021/07/23 08:39:11;;;;;;;;;;;;;;;;;;1496025;39;20291;-37
2021/07/23 08:40:12;;;;;;;;;;;;;;;;;;1495734;39;20031;-43
2021/07/23 08:41:12;;;;;;;;;;;;;;;;;;1495872;39;19963;-38
2021/07/23 08:42:26;;;;;;;;;;;;;;;;;;1495455;39;20613;-39
2021/07/23 08:43:27;;;;;;;;;;;;;;;;;;1493712;39;20222;-39
2021/07/23 08:44:27;;;;;;;;;;;;;;;;;;1488966;39;19952;-47
2021/07/23 08:45:27;;;;;;;;;;;;;;;;;;1490967;39;19935;-39
2021/07/23 08:46:28;;;;;;;;;;;;;;;;;;1488730;39;19968;-38
2021/07/23 08:47:29;;;;;;;;;;;;;;;;;;1489837;39;19957;-45
2021/07/23 08:48:29;;;;;;;;;;;;;;;;;;1490743;39;21068;-37
2021/07/23 08:49:30;;;;;;;;;;;;;;;;;;1486145;39;20252;-42
2021/07/23 08:50:30;;;;;;;;;;;;;;;;;;1486216;39;20207;-42
2021/07/23 08:51:31;;;;;;;;;;;;;;;;;;1490102;39;19977;-41
2021/07/23 08:52:38;;;;;;;;;;;;;;;;;;1490564;39;19956;-36
2021/07/23 08:53:38;;;;;;;;;;;;;;;;;;1490828;39;20334;-40
2021/07/23 08:54:38;;;;;;;;;;;;;;;;;;1490730;39;20451;-42
2021/07/23 08:55:39;;;;;;;;;;;;;;;;;;1491999;39;20286;-47
2021/07/23 08:56:44;;;;;;;;;;;;;;;;;;1491579;39;19943;-39
2021/07/23 08:57:44;;;;;;;;;;;;;;;;;;1492029;39;20328;-39
2021/07/23 08:58:45;;;;;;;;;;;;;;;;;;1487250;39;20644;-42
2021/07/23 08:59:45;;;;;;;;;;;;;;;;;;1483247;39;19940;-44
2021/07/23 09:00:45;;;;;;;;;;;;;;;;;;1480347;39;19963;-42
2021/07/23 09:01:59;;;;;;;;;;;;;;;;;;1442833;39;19949;-43
2021/07/23 09:03:03;;;;;;;;;;;;;;;;;;1469477;39;19951;-39
2021/07/23 09:04:23;;;;;;;;;;;;;;;;;;1471337;39;19962;-48
2021/07/23 09:05:27;;;;;;;;;;;;;;;;;;1484969;39;19947;-47
2021/07/23 09:06:28;;;;;;;;;;;;;;;;;;1462159;40;19937;-41
2021/07/23 09:07:29;;;;;;;;;;;;;;;;;;1475600;39;19939;-36
2021/07/23 09:08:44;;;;;;;;;;;;;;;;;;1448551;39;21520;-46
2021/07/23 09:09:54;;;;;;;;;;;;;;;;;;1478734;39;20181;-40
2021/07/23 09:11:07;;;;;;;;;;;;;;;;;;1466089;39;20069;-39
2021/07/23 09:12:07;;;;;;;;;;;;;;;;;;1459506;39;19939;-47
2021/07/23 09:13:08;;;;;;;;;;;;;;;;;;1469628;39;19943;-40
2021/07/23 09:14:12;;;;;;;;;;;;;;;;;;1473959;39;20003;-44
2021/07/23 09:15:26;;;;;;;;;;;;;;;;;;1462585;39;19943;-39
2021/07/23 09:16:26;;;;;;;;;;;;;;;;;;1473790;39;19991;-45
2021/07/23 09:17:42;;;;;;;;;;;;;;;;;;1468962;39;19960;-45
2021/07/23 09:18:44;;;;;;;;;;;;;;;;;;1467359;39;20216;-45
2021/07/23 09:20:00;;;;;;;;;;;;;;;;;;1463052;39;20183;-41
2021/07/23 09:21:04;;;;;;;;;;;;;;;;;;1478081;39;20302;-40
2021/07/23 09:22:05;;;;;;;;;;;;;;;;;;1461843;39;20038;-36
2021/07/23 09:23:06;;;;;;;;;;;;;;;;;;1472877;39;19964;-39
2021/07/23 09:24:06;;;;;;;;;;;;;;;;;;1460127;39;19959;-40
2021/07/23 09:25:07;;;;;;;;;;;;;;;;;;1466716;39;20040;-42
2021/07/23 09:26:07;;;;;;;;;;;;;;;;;;1478816;39;20749;-40
2021/07/23 09:27:09;;;;;;;;;;;;;;;;;;1476791;39;19936;-44
2021/07/23 09:28:22;;;;;;;;;;;;;;;;;;1476229;39;19978;-40
2021/07/23 09:29:22;;;;;;;;;;;;;;;;;;1466531;39;22547;-45
2021/07/23 09:30:30;;;;;;;;;;;;;;;;;;1478351;39;20053;-44
2021/07/23 09:31:33;;;;;;;;;;;;;;;;;;1462373;39;20018;-45
2021/07/23 09:32:33;;;;;;;;;;;;;;;;;;1448337;40;19968;-40
2021/07/23 09:33:38;;;;;;;;;;;;;;;;;;1455829;39;19936;-45
2021/07/23 09:34:38;;;;;;;;;;;;;;;;;;1462312;39;22647;-40
2021/07/23 09:35:52;;;;;;;;;;;;;;;;;;1463355;39;20346;-40
2021/07/23 09:37:05;;;;;;;;;;;;;;;;;;1472988;39;19963;-39
2021/07/23 09:38:05;;;;;;;;;;;;;;;;;;1467882;39;19952;-40
2021/07/23 09:39:06;;;;;;;;;;;;;;;;;;1483849;39;19948;-38
2021/07/23 09:40:07;;;;;;;;;;;;;;;;;;1448362;40;19945;-43
2021/07/23 09:41:09;;;;;;;;;;;;;;;;;;1461349;40;19981;-43
2021/07/23 09:42:09;;;;;;;;;;;;;;;;;;1444026;39;20271;-39
2021/07/23 09:43:09;;;;;;;;;;;;;;;;;;1454642;39;19951;-41
2021/07/23 09:44:13;;;;;;;;;;;;;;;;;;1461781;39;20103;-39
2021/07/23 09:45:24;;;;;;;;;;;;;;;;;;1459315;39;22914;-43
2021/07/23 09:46:26;;;;;;;;;;;;;;;;;;1471293;39;22002;-51
2021/07/23 09:47:26;;;;;;;;;;;;;;;;;;1460185;39;19944;-40
2021/07/23 09:48:27;;;;;;;;;;;;;;;;;;1444097;39;19934;-43
2021/07/23 09:49:29;;;;;;;;;;;;;;;;;;1435498;40;20217;-42
2021/07/23 09:50:30;;;;;;;;;;;;;;;;;;1458955;40;20192;-38
2021/07/23 09:51:30;;;;;;;;;;;;;;;;;;1467758;40;19941;-41
2021/07/23 09:52:32;;;;;;;;;;;;;;;;;;1467284;40;19945;-47
2021/07/23 09:53:35;;;;;;;;;;;;;;;;;;1458491;40;19982;-45
2021/07/23 09:54:36;;;;;;;;;;;;;;;;;;1467880;40;20262;-39
2021/07/23 09:55:37;;;;;;;;;;;;;;;;;;1460006;40;19941;-43
2021/07/23 09:56:38;;;;;;;;;;;;;;;;;;1414490;40;22722;-45
2021/07/23 09:57:41;;;;;;;;;;;;;;;;;;1431846;40;21437;-40
2021/07/23 09:58:46;;;;;;;;;;;;;;;;;;1444641;40;20224;-41
2021/07/23 09:59:53;;;;;;;;;;;;;;;;;;1468071;40;20087;-45
2021/07/23 10:00:56;;;;;;;;;;;;;;;;;;1450526;40;20061;-45
2021/07/23 10:02:10;;;;;;;;;;;;;;;;;;1467885;40;20014;-51
2021/07/23 10:03:14;;;;;;;;;;;;;;;;;;1442146;40;19940;-43
2021/07/23 10:04:34;;;;;;;;;;;;;;;;;;1447830;40;19950;-43
2021/07/23 10:05:38;;;;;;;;;;;;;;;;;;1407270;40;19946;-46
2021/07/23 10:06:41;;;;;;;;;;;;;;;;;;1433128;40;19950;-47
2021/07/23 10:08:01;;;;;;;;;;;;;;;;;;1435107;40;20225;-45
2021/07/23 10:09:04;;;;;;;;;;;;;;;;;;1436119;41;20284;-44
2021/07/23 10:10:07;;;;;;;;;;;;;;;;;;1431130;41;19970;-42
2021/07/23 10:11:09;;;;;;;;;;;;;;;;;;1432408;41;19948;-39
2021/07/23 10:12:12;;;;;;;;;;;;;;;;;;1438746;41;19994;-44
2021/07/23 10:13:13;;;;;;;;;;;;;;;;;;1435975;41;20186;-40
2021/07/23 10:14:16;;;;;;;;;;;;;;;;;;1429675;40;20247;-39
2021/07/23 10:15:19;;;;;;;;;;;;;;;;;;1442982;40;25759;-40
2021/07/23 10:16:20;;;;;;;;;;;;;;;;;;1445571;40;21366;-37
2021/07/23 10:17:20;;;;;;;;;;;;;;;;;;1433574;41;20005;-39
2021/07/23 10:18:24;;;;;;;;;;;;;;;;;;1431116;40;19955;-44
2021/07/23 10:19:25;;;;;;;;;;;;;;;;;;1431934;40;19955;-41
2021/07/23 10:20:25;;;;;;;;;;;;;;;;;;1439469;41;19940;-44
2021/07/23 10:21:26;;;;;;;;;;;;;;;;;;1446955;40;19946;-41
2021/07/23 10:22:27;;;;;;;;;;;;;;;;;;1446267;40;22373;-47
2021/07/23 10:23:28;;;;;;;;;;;;;;;;;;1439950;40;19954;-38
2021/07/23 10:24:33;;;;;;;;;;;;;;;;;;1427725;40;19939;-43
2021/07/23 10:25:36;;;;;;;;;;;;;;;;;;1408519;41;20013;-43
2021/07/23 10:26:37;;;;;;;;;;;;;;;;;;1418683;40;21974;-56
2021/07/23 10:27:40;;;;;;;;;;;;;;;;;;1434995;41;20204;-42
2021/07/23 10:28:43;;;;;;;;;;;;;;;;;;1420818;40;20209;-45
2021/07/23 10:29:48;;;;;;;;;;;;;;;;;;1431069;41;20084;-41
2021/07/23 10:30:48;;;;;;;;;;;;;;;;;;1424662;41;19939;-38
2021/07/23 10:31:48;;;;;;;;;;;;;;;;;;1420703;41;19986;-47
2021/07/23 10:32:49;;;;;;;;;;;;;;;;;;1395003;40;20142;-42
2021/07/23 10:33:53;;;;;;;;;;;;;;;;;;1432130;41;20110;-46
2021/07/23 10:34:55;;;;;;;;;;;;;;;;;;1438745;41;20197;-47
2021/07/23 10:35:56;;;;;;;;;;;;;;;;;;1430485;41;19988;-44
2021/07/23 10:36:56;;;;;;;;;;;;;;;;;;1436131;41;20026;-43
2021/07/23 10:37:57;;;;;;;;;;;;;;;;;;1426870;41;20330;-46
2021/07/23 10:39:06;;;;;;;;;;;;;;;;;;1433544;41;20212;-42
2021/07/23 10:40:09;;;;;;;;;;;;;;;;;;1438132;41;19947;-41
2021/07/23 10:41:11;;;;;;;;;;;;;;;;;;1423332;41;23182;-42
2021/07/23 10:42:11;;;;;;;;;;;;;;;;;;1416866;41;19945;-46
2021/07/23 10:43:31;;;;;;;;;;;;;;;;;;1428612;41;19981;-46
2021/07/23 10:44:32;;;;;;;;;;;;;;;;;;1427255;41;19945;-43
2021/07/23 10:45:39;;;;;;;;;;;;;;;;;;1428017;41;19940;-42
2021/07/23 10:46:43;;;;;;;;;;;;;;;;;;1432815;41;19944;-38
2021/07/23 10:47:44;;;;;;;;;;;;;;;;;;1405006;40;20103;-44
2021/07/23 10:48:46;;;;;;;;;;;;;;;;;;1448686;40;20349;-43
2021/07/23 10:49:46;;;;;;;;;;;;;;;;;;1435330;40;19963;-53
2021/07/23 10:50:48;;;;;;;;;;;;;;;;;;1443583;40;20792;-42
2021/07/23 10:51:48;;;;;;;;;;;;;;;;;;1443665;40;19966;-38
2021/07/23 10:52:48;;;;;;;;;;;;;;;;;;1428637;40;21184;-48
2021/07/23 10:54:01;;;;;;;;;;;;;;;;;;1443212;40;20311;-42
2021/07/23 10:55:11;;;;;;;;;;;;;;;;;;1448523;40;19943;-39
2021/07/23 10:56:12;;;;;;;;;;;;;;;;;;1442251;40;19959;-43
2021/07/23 10:57:12;;;;;;;;;;;;;;;;;;1444059;40;20021;-40
2021/07/23 10:58:29;;;;;;;;;;;;;;;;;;1442174;40;19965;-43
2021/07/23 10:59:38;;;;;;;;;;;;;;;;;;1326313;40;20197;-44
2021/07/23 11:00:46;;;;;;;;;;;;;;;;;;1365174;40;19958;-45
2021/07/23 11:01:50;;;;;;;;;;;;;;;;;;1438486;40;20012;-35
2021/07/23 11:02:50;;;;;;;;;;;;;;;;;;1449393;40;20005;-40
2021/07/23 11:03:58;;;;;;;;;;;;;;;;;;1446267;40;19943;-42
2021/07/23 11:05:06;;;;;;;;;;;;;;;;;;1339148;40;20265;-48
2021/07/23 11:06:22;;;;;;;;;;;;;;;;;;1391515;40;20370;-44
2021/07/23 11:07:24;;;;;;;;;;;;;;;;;;1453574;40;20226;-42
2021/07/23 11:08:24;;;;;;;;;;;;;;;;;;1444803;40;20315;-36
2021/07/23 11:09:25;;;;;;;;;;;;;;;;;;1403407;40;20561;-38
2021/07/23 11:10:25;;;;;;;;;;;;;;;;;;1450737;40;20046;-45
2021/07/23 11:11:27;;;;;;;;;;;;;;;;;;1429385;40;20307;-45
2021/07/23 11:12:31;;;;;;;;;;;;;;;;;;1455856;40;20437;-50
2021/07/23 11:13:31;;;;;;;;;;;;;;;;;;1441973;40;19961;-38
2021/07/23 11:14:31;;;;;;;;;;;;;;;;;;1451208;40;19946;-41
2021/07/23 11:15:31;;;;;;;;;;;;;;;;;;1444906;40;19947;-39
2021/07/23 11:16:32;;;;;;;;;;;;;;;;;;1420778;40;20260;-50
2021/07/23 11:17:32;;;;;;;;;;;;;;;;;;1451779;40;19957;-44
2021/07/23 11:18:32;;;;;;;;;;;;;;;;;;1368926;40;19954;-43
2021/07/23 11:19:33;;;;;;;;;;;;;;;;;;1385793;40;19953;-45
2021/07/23 11:20:34;;;;;;;;;;;;;;;;;;1454640;40;25761;-50
2021/07/23 11:21:35;;;;;;;;;;;;;;;;;;1454451;40;20094;-43
2021/07/23 11:22:36;;;;;;;;;;;;;;;;;;1460540;40;20038;-43
2021/07/23 11:23:37;;;;;;;;;;;;;;;;;;1456708;40;19974;-42
2021/07/23 11:24:37;;;;;;;;;;;;;;;;;;1439299;40;23271;-40
2021/07/23 11:25:38;;;;;;;;;;;;;;;;;;1448859;40;19945;-38
2021/07/23 11:26:39;;;;;;;;;;;;;;;;;;1457085;40;19961;-44
2021/07/23 11:27:42;;;;;;;;;;;;;;;;;;1466009;40;19960;-40
2021/07/23 11:28:46;;;;;;;;;;;;;;;;;;1451497;40;20063;-41
2021/07/23 11:29:46;;;;;;;;;;;;;;;;;;1459204;40;19989;-39
2021/07/23 11:30:46;;;;;;;;;;;;;;;;;;1448701;40;20451;-38
2021/07/23 11:31:47;;;;;;;;;;;;;;;;;;1390123;40;21136;-48
2021/07/23 11:32:49;;;;;;;;;;;;;;;;;;1453379;40;20012;-48
2021/07/23 11:33:49;;;;;;;;;;;;;;;;;;1451397;40;26526;-44
2021/07/23 11:35:05;;;;;;;;;;;;;;;;;;1460451;40;20088;-41
2021/07/23 11:36:06;;;;;;;;;;;;;;;;;;1448961;40;26707;-45
2021/07/23 11:37:17;;;;;;;;;;;;;;;;;;1454874;40;19945;-49
2021/07/23 11:38:17;;;;;;;;;;;;;;;;;;1465244;39;20722;-57
2021/07/23 11:39:20;;;;;;;;;;;;;;;;;;1462538;39;20297;-41
2021/07/23 11:40:24;;;;;;;;;;;;;;;;;;1453587;40;19960;-42
2021/07/23 11:41:24;;;;;;;;;;;;;;;;;;1472919;39;20338;-44
2021/07/23 11:42:25;;;;;;;;;;;;;;;;;;1454932;39;25758;-47
2021/07/23 11:43:26;;;;;;;;;;;;;;;;;;1459267;40;20473;-41
2021/07/23 11:44:26;;;;;;;;;;;;;;;;;;1463673;39;20247;-50
2021/07/23 11:45:31;;;;;;;;;;;;;;;;;;1462727;40;19944;-42
2021/07/23 11:46:32;;;;;;;;;;;;;;;;;;1462900;40;19941;-37
2021/07/23 11:47:32;;;;;;;;;;;;;;;;;;1468560;40;19950;-40
2021/07/23 11:48:32;;;;;;;;;;;;;;;;;;1439667;40;20288;-48
2021/07/23 11:49:33;;;;;;;;;;;;;;;;;;1460304;40;20220;-47
2021/07/23 11:50:33;;;;;;;;;;;;;;;;;;1438845;39;20038;-51
2021/07/23 11:51:51;;;;;;;;;;;;;;;;;;1467814;39;19959;-46
2021/07/23 11:52:59;;;;;;;;;;;;;;;;;;1443874;40;20392;-45
2021/07/23 11:53:59;;;;;;;;;;;;;;;;;;1420829;40;19957;-50
2021/07/23 11:55:04;;;;;;;;;;;;;;;;;;1443357;40;20436;-39
2021/07/23 11:56:04;;;;;;;;;;;;;;;;;;1434625;40;19949;-44
2021/07/23 11:57:05;;;;;;;;;;;;;;;;;;1459216;40;19945;-56
2021/07/23 11:58:05;;;;;;;;;;;;;;;;;;1466595;39;25812;-51
2021/07/23 11:59:06;;;;;;;;;;;;;;;;;;1478918;39;20069;-46
2021/07/23 12:00:07;;;;;;;;;;;;;;;;;;1452829;39;19953;-45
2021/07/23 12:01:16;;;;;;;;;;;;;;;;;;1470280;40;19948;-48
2021/07/23 12:02:16;;;;;;;;;;;;;;;;;;1419214;40;19944;-52
2021/07/23 12:03:18;;;;;;;;;;;;;;;;;;1452777;40;19969;-47
2021/07/23 12:04:28;;;;;;;;;;;;;;;;;;1441080;40;20347;-49
2021/07/23 12:05:30;;;;;;;;;;;;;;;;;;1480358;39;20388;-47
2021/07/23 12:06:30;;;;;;;;;;;;;;;;;;1476570;39;20134;-49
2021/07/23 12:07:31;;;;;;;;;;;;;;;;;;1483968;39;20335;-48
2021/07/23 12:08:39;;;;;;;;;;;;;;;;;;1468273;39;19941;-43
2021/07/23 12:09:40;;;;;;;;;;;;;;;;;;1433052;39;20345;-43
2021/07/23 12:10:41;;;;;;;;;;;;;;;;;;1462777;39;20006;-40
2021/07/23 12:11:41;;;;;;;;;;;;;;;;;;1474465;39;20877;-49
2021/07/23 12:12:41;;;;;;;;;;;;;;;;;;1469914;40;19940;-40
2021/07/23 12:13:42;;;;;;;;;;;;;;;;;;1458424;40;20293;-47
2021/07/23 12:14:42;;;;;;;;;;;;;;;;;;1406819;40;19962;-53
2021/07/23 12:15:45;;;;;;;;;;;;;;;;;;1447827;40;19942;-36
2021/07/23 12:16:45;;;;;;;;;;;;;;;;;;1438044;40;19970;-44
2021/07/23 12:17:46;;;;;;;;;;;;;;;;;;1450318;40;20905;-45
2021/07/23 12:19:00;;;;;;;;;;;;;;;;;;1453529;40;19981;-39
2021/07/23 12:20:00;;;;;;;;;;;;;;;;;;1412349;40;19953;-55
2021/07/23 12:21:08;;;;;;;;;;;;;;;;;;1463864;40;19941;-52
2021/07/23 12:22:10;;;;;;;;;;;;;;;;;;1436560;40;19966;-51
2021/07/23 12:23:12;;;;;;;;;;;;;;;;;;1450733;40;21600;-42
2021/07/23 12:24:12;;;;;;;;;;;;;;;;;;1466002;40;20108;-50
2021/07/23 12:25:20;;;;;;;;;;;;;;;;;;1431763;40;20336;-40
2021/07/23 12:26:32;;;;;;;;;;;;;;;;;;1463536;40;20418;-42
2021/07/23 12:27:32;;;;;;;;;;;;;;;;;;1449635;40;26204;-45
2021/07/23 12:28:32;;;;;;;;;;;;;;;;;;1451538;40;19969;-42
2021/07/23 12:29:38;;;;;;;;;;;;;;;;;;1461695;40;19941;-45
2021/07/23 12:30:42;;;;;;;;;;;;;;;;;;1438651;40;19953;-53
2021/07/23 12:31:42;;;;;;;;;;;;;;;;;;1442116;40;19949;-55
2021/07/23 12:32:42;;;;;;;;;;;;;;;;;;1444099;40;20009;-44
2021/07/23 12:33:43;;;;;;;;;;;;;;;;;;1461358;40;19941;-47
2021/07/23 12:34:53;;;;;;;;;;;;;;;;;;1448186;40;19953;-45
2021/07/23 12:35:57;;;;;;;;;;;;;;;;;;1432917;40;27679;-52
2021/07/23 12:36:57;;;;;;;;;;;;;;;;;;1453066;39;19959;-40
2021/07/23 12:38:05;;;;;;;;;;;;;;;;;;1455039;39;19940;-46
2021/07/23 12:39:05;;;;;;;;;;;;;;;;;;1452585;40;23222;-41
2021/07/23 12:40:07;;;;;;;;;;;;;;;;;;1458228;40;20074;-43
2021/07/23 12:41:07;;;;;;;;;;;;;;;;;;1467051;40;19993;-58
2021/07/23 12:42:20;;;;;;;;;;;;;;;;;;1422539;40;20158;-52
2021/07/23 12:43:22;;;;;;;;;;;;;;;;;;1447216;40;20069;-46
2021/07/23 12:44:22;;;;;;;;;;;;;;;;;;1454385;40;19942;-45
2021/07/23 12:45:34;;;;;;;;;;;;;;;;;;1445129;40;20654;-40
2021/07/23 12:46:35;;;;;;;;;;;;;;;;;;1427529;40;20654;-49
2021/07/23 12:47:43;;;;;;;;;;;;;;;;;;1399251;40;19976;-56
2021/07/23 12:48:44;;;;;;;;;;;;;;;;;;1457374;40;20576;-39
2021/07/23 12:49:44;;;;;;;;;;;;;;;;;;1465472;40;19941;-46
2021/07/23 12:50:45;;;;;;;;;;;;;;;;;;1464830;40;20124;-41
2021/07/23 12:51:46;;;;;;;;;;;;;;;;;;1463172;40;20503;-51
2021/07/23 12:52:50;;;;;;;;;;;;;;;;;;1462998;40;19942;-42
2021/07/23 12:53:57;;;;;;;;;;;;;;;;;;1477994;39;19940;-42
2021/07/23 12:55:03;;;;;;;;;;;;;;;;;;1478598;39;20350;-53
2021/07/23 12:56:05;;;;;;;;;;;;;;;;;;1482698;40;20256;-52
2021/07/23 12:57:22;;;;;;;;;;;;;;;;;;1484721;40;19940;-49